createdAt,value
2019-02-19T00:00:20.755Z,48.07
2019-02-19T00:02:50.177Z,47.65
2019-02-19T00:05:20.351Z,48.10
2019-02-19T00:07:49.688Z,48.05
2019-02-19T00:10:19.083Z,48.31
2019-02-19T00:12:48.461Z,48.34
2019-02-19T00:15:18.372Z,48.16
2019-02-19T00:17:47.745Z,48.41
2019-02-19T00:20:17.085Z,48.22
2019-02-19T00:22:46.533Z,48.22
2019-02-19T00:25:15.864Z,48.32
2019-02-19T00:27:45.216Z,48.91
2019-02-19T00:30:14.593Z,48.93
2019-02-19T00:32:43.924Z,48.29
2019-02-19T00:35:13.259Z,48.58
2019-02-19T00:37:42.616Z,48.33
2019-02-19T00:40:12.044Z,48.62
2019-02-19T00:42:41.355Z,48.44
2019-02-19T00:45:16.478Z,48.31
2019-02-19T00:47:40.176Z,48.59
2019-02-19T00:50:09.809Z,48.49
2019-02-19T00:52:39.132Z,48.89
2019-02-19T00:55:08.875Z,49.11
2019-02-19T00:57:38.188Z,48.87
2019-02-19T01:00:09.371Z,48.88
2019-02-19T01:02:39.754Z,48.79
2019-02-19T01:05:09.168Z,48.59
2019-02-19T01:07:38.559Z,48.82
2019-02-19T01:10:08.021Z,48.77
2019-02-19T01:12:43.987Z,48.43
2019-02-19T01:15:13.388Z,48.93
2019-02-19T01:17:42.772Z,48.78
2019-02-19T01:20:12.145Z,49.10
2019-02-19T01:22:41.461Z,48.72
2019-02-19T01:25:10.848Z,48.66
2019-02-19T01:27:40.132Z,49.02
2019-02-19T01:30:11.885Z,49.30
2019-02-19T01:32:41.240Z,49.10
2019-02-19T01:35:16.937Z,48.68
2019-02-19T01:37:46.327Z,49.07
2019-02-19T01:40:15.727Z,48.70
2019-02-19T01:42:45.075Z,48.66
2019-02-19T01:45:15.178Z,48.83
2019-02-19T01:47:44.475Z,48.93
2019-02-19T01:50:13.810Z,48.97
2019-02-19T01:52:45.992Z,49.08
2019-02-19T01:55:15.299Z,48.70
2019-02-19T01:57:44.608Z,49.28
2019-02-19T02:00:14.424Z,48.92
2019-02-19T02:02:44.482Z,49.06
2019-02-19T02:05:13.939Z,49.43
2019-02-19T02:07:43.293Z,49.28
2019-02-19T02:10:12.536Z,49.58
2019-02-19T02:12:41.847Z,49.21
2019-02-19T02:15:11.344Z,48.85
2019-02-19T02:17:40.719Z,49.08
2019-02-19T02:20:10.824Z,49.04
2019-02-19T02:22:40.101Z,49.71
2019-02-19T02:25:10.074Z,49.26
2019-02-19T02:27:39.478Z,49.11
2019-02-19T02:30:08.988Z,49.15
2019-02-19T02:32:38.313Z,49.38
2019-02-19T02:35:07.754Z,49.65
2019-02-19T02:37:37.225Z,49.73
2019-02-19T02:40:06.811Z,49.19
2019-02-19T02:42:36.172Z,49.60
2019-02-19T02:45:05.565Z,49.36
2019-02-19T02:47:34.913Z,49.30
2019-02-19T02:50:04.319Z,49.34
2019-02-19T02:52:33.729Z,49.41
2019-02-19T02:55:03.071Z,49.26
2019-02-19T02:57:32.406Z,49.50
2019-02-19T03:00:01.752Z,49.82
2019-02-19T03:02:31.150Z,50.04
2019-02-19T03:05:00.552Z,49.64
2019-02-19T03:07:37.025Z,49.93
2019-02-19T03:10:07.171Z,49.59
2019-02-19T03:12:36.567Z,49.78
2019-02-19T03:15:06.546Z,49.65
2019-02-19T03:17:36.870Z,50.39
2019-02-19T03:20:06.473Z,50.17
2019-02-19T03:22:36.046Z,50.81
2019-02-19T03:25:05.494Z,50.68
2019-02-19T03:27:34.827Z,50.38
2019-02-19T03:30:04.557Z,50.57
2019-02-19T03:32:33.851Z,50.39
2019-02-19T03:35:03.110Z,51.08
2019-02-19T03:37:33.155Z,51.09
2019-02-19T03:40:02.471Z,50.97
2019-02-19T03:42:31.816Z,50.86
2019-02-19T03:45:01.112Z,51.04
2019-02-19T03:47:30.520Z,51.69
2019-02-19T03:49:59.872Z,51.48
2019-02-19T03:52:29.201Z,51.36
2019-02-19T03:54:58.540Z,51.42
2019-02-19T03:57:27.899Z,51.51
2019-02-19T03:59:57.216Z,51.92
2019-02-19T04:05:36.673Z,51.94
2019-02-19T04:08:05.917Z,51.79
2019-02-19T04:10:35.204Z,51.96
2019-02-19T04:13:04.416Z,51.92
2019-02-19T04:15:33.720Z,52.07
2019-02-19T04:18:02.983Z,52.01
2019-02-19T04:20:32.197Z,52.33
2019-02-19T04:23:01.551Z,52.12
2019-02-19T04:25:30.740Z,52.56
2019-02-19T04:28:00.085Z,52.09
2019-02-19T04:30:29.411Z,51.61
2019-02-19T04:32:58.784Z,51.91
2019-02-19T04:35:28.084Z,52.52
2019-02-19T04:37:57.389Z,52.06
2019-02-19T04:40:26.849Z,52.06
2019-02-19T04:42:56.156Z,52.19
2019-02-19T04:45:25.485Z,52.35
2019-02-19T04:47:54.868Z,51.95
2019-02-19T04:50:24.187Z,52.28
2019-02-19T04:52:53.543Z,52.53
2019-02-19T04:55:22.905Z,52.10
2019-02-19T04:57:53.432Z,51.95
2019-02-19T05:00:23.329Z,52.21
2019-02-19T05:02:52.688Z,52.05
2019-02-19T05:05:21.990Z,52.60
2019-02-19T05:07:51.352Z,52.50
2019-02-19T05:10:20.653Z,52.54
2019-02-19T05:12:50.551Z,52.71
2019-02-19T05:15:19.900Z,52.44
2019-02-19T05:17:49.304Z,52.27
2019-02-19T05:20:18.607Z,52.41
2019-02-19T05:22:55.112Z,52.20
2019-02-19T05:25:24.407Z,52.37
2019-02-19T05:27:53.730Z,52.43
2019-02-19T05:30:23.030Z,52.95
2019-02-19T05:32:52.374Z,52.70
2019-02-19T05:35:21.743Z,53.18
2019-02-19T05:37:51.027Z,53.01
2019-02-19T05:40:20.333Z,52.72
2019-02-19T05:42:49.711Z,53.07
2019-02-19T05:45:19.796Z,53.10
2019-02-19T05:47:49.628Z,53.02
2019-02-19T05:50:18.924Z,53.09
2019-02-19T05:52:48.372Z,53.11
2019-02-19T05:55:17.755Z,52.84
2019-02-19T05:57:47.077Z,53.01
2019-02-19T06:00:16.831Z,52.98
2019-02-19T06:02:46.755Z,52.37
2019-02-19T06:05:16.071Z,52.52
2019-02-19T06:07:45.403Z,52.93
2019-02-19T06:10:15.625Z,53.46
2019-02-19T06:12:45.103Z,53.19
2019-02-19T06:15:14.422Z,52.55
2019-02-19T06:17:43.743Z,52.51
2019-02-19T06:20:13.077Z,53.19
2019-02-19T06:22:42.764Z,53.87
2019-02-19T06:25:12.101Z,55.38
2019-02-19T06:27:41.400Z,55.07
2019-02-19T06:30:12.898Z,53.84
2019-02-19T06:32:42.246Z,53.49
2019-02-19T06:35:11.594Z,54.56
2019-02-19T06:37:40.881Z,54.88
2019-02-19T06:40:19.679Z,52.74
2019-02-19T06:42:56.573Z,52.64
2019-02-19T06:45:25.853Z,53.16
2019-02-19T06:47:55.147Z,52.97
2019-02-19T06:50:24.439Z,52.94
2019-02-19T06:52:53.783Z,52.98
2019-02-19T06:55:23.163Z,52.41
2019-02-19T06:57:53.039Z,52.57
2019-02-19T07:00:24.025Z,52.66
2019-02-19T07:02:59.942Z,52.55
2019-02-19T07:05:29.223Z,52.80
2019-02-19T07:07:58.536Z,52.70
2019-02-19T07:10:28.019Z,52.90
2019-02-19T07:12:57.356Z,52.61
2019-02-19T07:15:26.664Z,52.80
2019-02-19T07:17:55.986Z,52.54
2019-02-19T07:20:25.292Z,52.77
2019-02-19T07:22:55.334Z,52.53
2019-02-19T07:25:24.673Z,52.14
2019-02-19T07:27:54.419Z,52.40
2019-02-19T07:30:23.802Z,51.75
2019-02-19T07:32:53.114Z,51.54
2019-02-19T07:35:22.579Z,51.63
2019-02-19T07:37:51.868Z,51.97
2019-02-19T07:40:21.231Z,51.85
2019-02-19T07:42:50.565Z,52.13
2019-02-19T07:45:19.924Z,51.88
2019-02-19T07:47:49.232Z,51.89
2019-02-19T07:50:18.508Z,52.04
2019-02-19T07:52:47.981Z,52.34
2019-02-19T07:55:17.452Z,52.67
2019-02-19T07:57:46.805Z,52.68
2019-02-19T08:00:16.765Z,52.67
2019-02-19T08:02:46.029Z,53.01
2019-02-19T08:05:15.357Z,53.07
2019-02-19T08:07:44.656Z,52.75
2019-02-19T08:10:13.980Z,52.84
2019-02-19T08:12:44.219Z,53.06
2019-02-19T08:15:13.628Z,53.34
2019-02-19T08:17:42.923Z,53.50
2019-02-19T08:20:15.716Z,53.77
2019-02-19T08:22:41.656Z,55.90
2019-02-19T08:25:11.051Z,55.93
2019-02-19T08:27:40.410Z,55.56
2019-02-19T08:30:11.190Z,55.48
2019-02-19T08:32:39.392Z,55.58
2019-02-19T08:35:08.765Z,56.78
2019-02-19T08:37:38.108Z,57.32
2019-02-19T08:40:07.865Z,58.28
2019-02-19T08:42:37.189Z,58.33
2019-02-19T08:45:06.609Z,58.09
2019-02-19T08:47:42.209Z,58.73
2019-02-19T08:50:05.500Z,59.25
2019-02-19T08:52:34.853Z,58.37
2019-02-19T08:55:04.208Z,60.13
2019-02-19T08:57:33.561Z,60.05
2019-02-19T09:00:02.952Z,60.25
2019-02-19T09:02:32.265Z,61.93
2019-02-19T09:05:01.659Z,62.54
2019-02-19T09:07:31.110Z,62.26
2019-02-19T09:10:00.402Z,62.15
2019-02-19T09:12:29.733Z,63.82
2019-02-19T09:14:59.060Z,62.61
2019-02-19T09:17:28.352Z,64.07
2019-02-19T09:19:59.538Z,63.16
2019-02-19T09:22:26.963Z,64.46
2019-02-19T09:24:56.263Z,63.70
2019-02-19T09:27:25.619Z,64.34
2019-02-19T09:29:54.930Z,63.35
2019-02-19T09:32:24.391Z,64.10
2019-02-19T09:34:53.707Z,63.50
2019-02-19T09:37:23.853Z,63.50
2019-02-19T09:39:53.236Z,63.30
2019-02-19T09:42:22.643Z,63.78
2019-02-19T09:44:51.947Z,64.96
2019-02-19T09:47:21.351Z,65.24
2019-02-19T09:49:50.609Z,65.02
2019-02-19T09:52:19.972Z,64.18
2019-02-19T09:54:50.198Z,64.42
2019-02-19T09:57:19.513Z,64.15
2019-02-19T09:59:48.808Z,64.64
2019-02-19T10:02:18.092Z,63.98
2019-02-19T10:04:47.370Z,64.06
2019-02-19T10:07:16.768Z,64.44
2019-02-19T10:09:46.116Z,65.02
2019-02-19T10:12:15.451Z,65.35
2019-02-19T10:14:44.807Z,64.95
2019-02-19T10:17:14.080Z,65.37
2019-02-19T10:19:43.449Z,66.82
2019-02-19T10:22:12.756Z,65.94
2019-02-19T10:24:42.231Z,66.33
2019-02-19T10:27:11.557Z,65.40
2019-02-19T10:29:40.911Z,64.63
2019-02-19T10:32:10.292Z,65.25
2019-02-19T10:34:39.580Z,65.50
2019-02-19T10:37:08.961Z,65.79
2019-02-19T10:39:38.253Z,65.59
2019-02-19T10:42:07.634Z,65.79
2019-02-19T10:44:37.031Z,66.13
2019-02-19T10:47:06.358Z,64.96
2019-02-19T10:49:35.692Z,67.77
2019-02-19T10:52:05.031Z,65.45
2019-02-19T10:54:34.325Z,64.78
2019-02-19T10:57:03.679Z,66.36
2019-02-19T10:59:34.091Z,66.21
2019-02-19T11:02:03.463Z,64.96
2019-02-19T11:04:32.853Z,65.55
2019-02-19T11:07:03.184Z,66.03
2019-02-19T11:09:32.492Z,64.58
2019-02-19T11:12:01.815Z,64.73
2019-02-19T11:14:31.192Z,65.31
2019-02-19T11:17:00.634Z,64.45
2019-02-19T11:19:29.928Z,64.98
2019-02-19T11:21:59.308Z,63.81
2019-02-19T11:24:28.840Z,63.17
2019-02-19T11:26:58.159Z,63.61
2019-02-19T11:29:27.469Z,62.49
2019-02-19T11:31:56.785Z,62.81
2019-02-19T11:34:26.131Z,61.53
2019-02-19T11:36:56.469Z,63.57
2019-02-19T11:39:25.800Z,61.01
2019-02-19T11:41:55.184Z,62.23
2019-02-19T11:44:24.561Z,60.33
2019-02-19T11:46:53.884Z,59.81
2019-02-19T11:49:23.323Z,60.58
2019-02-19T11:51:53.223Z,60.31
2019-02-19T11:54:22.646Z,60.43
2019-02-19T11:56:52.025Z,61.73
2019-02-19T11:59:21.382Z,60.17
2019-02-19T12:01:50.716Z,58.96
2019-02-19T12:04:20.026Z,59.91
2019-02-19T12:06:49.384Z,58.46
2019-02-19T12:09:19.164Z,59.55
2019-02-19T12:11:48.973Z,58.51
2019-02-19T12:14:18.390Z,58.74
2019-02-19T12:16:48.471Z,59.28
2019-02-19T12:19:17.845Z,58.45
2019-02-19T12:21:47.208Z,57.09
2019-02-19T12:24:16.569Z,57.85
2019-02-19T12:26:45.908Z,58.49
2019-02-19T12:29:16.322Z,58.64
2019-02-19T12:31:45.669Z,57.65
2019-02-19T12:34:15.720Z,57.90
2019-02-19T12:36:45.147Z,56.14
2019-02-19T12:39:14.514Z,57.55
2019-02-19T12:41:43.996Z,57.40
2019-02-19T12:44:13.365Z,56.58
2019-02-19T12:46:42.697Z,56.68
2019-02-19T12:49:12.029Z,54.71
2019-02-19T12:51:41.380Z,55.97
2019-02-19T12:54:15.381Z,55.51
2019-02-19T12:56:44.870Z,54.47
2019-02-19T12:59:15.070Z,54.70
2019-02-19T13:01:44.390Z,54.79
2019-02-19T13:04:14.752Z,55.41
2019-02-19T13:06:44.069Z,55.41
2019-02-19T13:09:13.547Z,54.86
2019-02-19T13:11:42.948Z,54.14
2019-02-19T13:14:12.384Z,54.24
2019-02-19T13:16:41.704Z,53.80
2019-02-19T13:19:11.129Z,54.28
2019-02-19T13:21:40.610Z,53.40
2019-02-19T13:24:09.972Z,53.20
2019-02-19T13:26:39.316Z,53.05
2019-02-19T13:29:09.084Z,52.44
2019-02-19T13:31:38.488Z,51.81
2019-02-19T13:34:07.884Z,51.86
2019-02-19T13:36:37.232Z,53.23
2019-02-19T13:39:06.593Z,52.51
2019-02-19T13:41:37.066Z,51.93
2019-02-19T13:44:05.303Z,51.61
2019-02-19T13:46:35.348Z,51.87
2019-02-19T13:49:12.467Z,52.15
2019-02-19T13:51:40.751Z,51.77
2019-02-19T13:54:18.587Z,50.94
2019-02-19T13:56:48.552Z,50.26
2019-02-19T13:59:17.903Z,50.58
2019-02-19T14:01:47.289Z,50.16
2019-02-19T14:04:16.692Z,50.67
2019-02-19T14:06:46.129Z,49.94
2019-02-19T14:09:16.322Z,49.90
2019-02-19T14:11:45.677Z,49.91
2019-02-19T14:14:35.652Z,50.46
2019-02-19T14:17:08.655Z,50.51
2019-02-19T14:19:42.448Z,50.84
2019-02-19T14:22:15.899Z,50.10
2019-02-19T14:24:50.135Z,49.60
2019-02-19T14:27:24.528Z,49.25
2019-02-19T14:29:59.240Z,48.81
2019-02-19T14:34:37.950Z,47.49
2019-02-19T14:37:16.988Z,46.32
2019-02-19T14:39:51.357Z,45.39
2019-02-19T14:42:26.115Z,44.61
2019-02-19T14:45:01.553Z,44.95
2019-02-19T14:47:34.936Z,45.42
2019-02-19T14:50:14.399Z,46.16
2019-02-19T14:52:55.665Z,42.82
2019-02-19T14:58:33.553Z,37.81
2019-02-19T15:01:20.161Z,37.82
2019-02-19T15:03:57.566Z,32.68
2019-02-19T15:06:34.061Z,28.98
2019-02-19T15:09:08.683Z,25.50
2019-02-19T15:11:44.092Z,22.05
2019-02-19T15:14:50.789Z,21.75
2019-02-19T15:17:29.193Z,20.59
2019-02-19T15:20:05.608Z,19.36
2019-02-19T15:22:42.096Z,24.09
2019-02-19T15:25:16.284Z,26.37
2019-02-19T15:27:51.461Z,26.48
2019-02-19T15:30:28.283Z,29.11
2019-02-19T15:33:01.662Z,31.93
2019-02-19T15:35:36.138Z,33.82
2019-02-19T15:38:15.361Z,38.08
2019-02-19T15:41:09.766Z,39.13
2019-02-19T15:43:43.130Z,39.43
2019-02-19T15:46:19.422Z,42.13
2019-02-19T15:48:54.848Z,40.43
2019-02-19T15:51:29.541Z,42.48
2019-02-19T15:54:05.948Z,44.51
2019-02-19T15:56:41.374Z,45.22
2019-02-19T16:00:19.645Z,46.82
2019-02-19T16:02:55.968Z,46.97
2019-02-19T16:05:31.486Z,47.15
2019-02-19T16:08:41.400Z,49.34
2019-02-19T16:11:19.104Z,48.65
2019-02-19T16:13:58.483Z,49.31
2019-02-19T16:16:33.794Z,49.98
2019-02-19T16:19:07.166Z,50.43
2019-02-19T16:21:48.681Z,50.01
2019-02-19T16:24:29.091Z,50.57
2019-02-19T16:27:02.524Z,50.23
2019-02-19T16:29:37.043Z,50.34
2019-02-19T16:32:11.507Z,50.28
2019-02-19T16:34:49.309Z,50.65
2019-02-19T16:37:29.862Z,50.56
2019-02-19T16:40:12.003Z,50.60
2019-02-19T16:42:55.048Z,50.60
2019-02-19T16:45:32.341Z,51.32
2019-02-19T16:49:09.484Z,50.45
2019-02-19T16:51:45.919Z,50.89
2019-02-19T16:54:22.211Z,51.17
2019-02-19T16:56:56.083Z,50.83
2019-02-19T16:59:29.576Z,51.41
2019-02-19T17:02:05.460Z,51.80
2019-02-19T17:04:39.258Z,52.28
2019-02-19T17:07:13.639Z,52.56
2019-02-19T17:09:48.008Z,53.04
2019-02-19T17:12:34.112Z,53.10
2019-02-19T17:15:07.583Z,53.43
2019-02-19T17:19:44.312Z,53.45
2019-02-19T17:22:19.772Z,53.74
2019-02-19T17:24:55.416Z,53.90
2019-02-19T17:27:29.913Z,53.74
2019-02-19T17:30:06.776Z,54.19
2019-02-19T17:32:43.862Z,54.57
2019-02-19T17:35:22.130Z,55.14
2019-02-19T17:37:56.571Z,54.79
2019-02-19T17:40:33.866Z,55.31
2019-02-19T17:43:08.439Z,54.94
2019-02-19T17:45:43.853Z,55.09
2019-02-19T17:48:19.105Z,55.10
2019-02-19T17:50:56.947Z,55.69
2019-02-19T17:53:40.251Z,55.87
2019-02-19T17:56:14.717Z,56.10
2019-02-19T17:59:50.928Z,55.30
2019-02-19T18:02:27.280Z,55.04
2019-02-19T18:05:02.893Z,55.75
2019-02-19T18:08:38.952Z,55.88
2019-02-19T18:11:15.420Z,55.74
2019-02-19T18:13:52.689Z,55.83
2019-02-19T18:16:59.587Z,56.28
2019-02-19T18:19:28.928Z,55.79
2019-02-19T18:21:58.338Z,56.17
2019-02-19T18:24:27.555Z,56.89
2019-02-19T18:26:56.838Z,56.52
2019-02-19T18:29:26.051Z,56.80
2019-02-19T18:31:55.422Z,56.08
2019-02-19T18:34:24.800Z,56.58
2019-02-19T18:36:54.736Z,57.27
2019-02-19T18:39:23.993Z,56.84
2019-02-19T18:41:53.349Z,56.47
2019-02-19T18:44:22.775Z,57.06
2019-02-19T18:46:52.084Z,57.90
2019-02-19T18:49:21.479Z,57.32
2019-02-19T18:51:50.763Z,57.30
2019-02-19T18:54:20.070Z,57.26
2019-02-19T18:56:49.375Z,57.50
2019-02-19T18:59:18.765Z,57.55
2019-02-19T19:01:48.228Z,58.13
2019-02-19T19:04:17.617Z,57.83
2019-02-19T19:06:47.966Z,57.77
2019-02-19T19:09:17.309Z,58.07
2019-02-19T19:11:46.641Z,58.08
2019-02-19T19:14:16.103Z,58.49
2019-02-19T19:16:45.471Z,58.49
2019-02-19T19:19:14.816Z,58.08
2019-02-19T19:21:44.131Z,58.56
2019-02-19T19:24:13.934Z,58.47
2019-02-19T19:26:43.245Z,58.81
2019-02-19T19:29:12.579Z,58.25
2019-02-19T19:31:42.004Z,58.77
2019-02-19T19:34:11.302Z,58.77
2019-02-19T19:36:40.582Z,59.24
2019-02-19T19:39:09.864Z,58.93
2019-02-19T19:41:39.963Z,58.99
2019-02-19T19:44:09.934Z,59.31
2019-02-19T19:46:39.320Z,58.90
2019-02-19T19:49:08.669Z,59.21
2019-02-19T19:51:37.982Z,59.33
2019-02-19T19:54:07.412Z,59.34
2019-02-19T19:56:36.739Z,59.66
2019-02-19T19:59:06.156Z,59.47
2019-02-19T20:01:35.525Z,59.25
2019-02-19T20:04:04.927Z,59.12
2019-02-19T20:06:34.297Z,59.21
2019-02-19T20:09:03.789Z,59.12
2019-02-19T20:11:33.116Z,59.45
2019-02-19T20:14:02.555Z,59.02
2019-02-19T20:16:31.861Z,59.41
2019-02-19T20:19:03.124Z,58.87
2019-02-19T20:24:10.903Z,59.08
2019-02-19T20:26:40.269Z,58.89
2019-02-19T20:29:10.652Z,58.66
2019-02-19T20:31:40.599Z,58.86
2019-02-19T20:34:09.952Z,59.31
2019-02-19T20:36:39.188Z,58.83
2019-02-19T20:39:08.478Z,58.62
2019-02-19T20:41:37.878Z,58.61
2019-02-19T20:44:07.199Z,58.95
2019-02-19T20:46:36.515Z,59.20
2019-02-19T20:49:05.831Z,58.76
2019-02-19T20:51:36.621Z,59.27
2019-02-19T20:54:04.620Z,59.27
2019-02-19T20:56:33.925Z,58.78
2019-02-19T20:59:03.338Z,58.86
2019-02-19T21:01:32.644Z,59.44
2019-02-19T21:04:02.004Z,59.27
2019-02-19T21:06:31.389Z,59.29
2019-02-19T21:09:01.320Z,59.62
2019-02-19T21:11:30.736Z,59.75
2019-02-19T21:14:00.178Z,59.36
2019-02-19T21:16:29.648Z,59.25
2019-02-19T21:18:59.061Z,59.69
2019-02-19T21:21:28.500Z,59.14
2019-02-19T21:23:58.576Z,59.17
2019-02-19T21:26:27.977Z,59.98
2019-02-19T21:28:57.258Z,59.65
2019-02-19T21:31:26.617Z,59.86
2019-02-19T21:33:55.940Z,60.33
2019-02-19T21:36:25.232Z,60.45
2019-02-19T21:38:54.670Z,60.30
2019-02-19T21:41:24.004Z,60.37
2019-02-19T21:43:53.382Z,60.27
2019-02-19T21:46:22.680Z,60.35
2019-02-19T21:48:51.976Z,60.86
2019-02-19T21:51:21.944Z,61.39
2019-02-19T21:53:51.231Z,61.13
2019-02-19T21:56:21.480Z,60.76
2019-02-19T21:58:50.755Z,60.98
2019-02-19T22:01:20.109Z,60.88
2019-02-19T22:03:49.564Z,60.82
2019-02-19T22:06:18.945Z,61.28
2019-02-19T22:08:48.807Z,61.30
2019-02-19T22:11:18.245Z,60.65
2019-02-19T22:13:47.543Z,61.12
2019-02-19T22:16:17.439Z,61.00
2019-02-19T22:18:46.743Z,61.02
2019-02-19T22:21:21.241Z,60.86
2019-02-19T22:23:50.888Z,60.88
2019-02-19T22:26:20.292Z,60.75
2019-02-19T22:28:49.609Z,60.97
2019-02-19T22:31:18.909Z,60.54
2019-02-19T22:33:48.924Z,60.25
2019-02-19T22:36:18.265Z,60.98
2019-02-19T22:38:47.588Z,60.88
2019-02-19T22:41:17.019Z,61.04
2019-02-19T22:43:47.093Z,60.56
2019-02-19T22:46:16.603Z,60.67
2019-02-19T22:48:45.927Z,61.21
2019-02-19T22:51:15.303Z,61.01
2019-02-19T22:54:06.723Z,60.95
2019-02-19T22:56:39.971Z,61.12
2019-02-19T22:59:09.320Z,61.06
2019-02-19T23:01:41.569Z,61.02
2019-02-19T23:04:10.869Z,61.23
2019-02-19T23:06:40.253Z,60.91
2019-02-19T23:09:09.568Z,61.72
2019-02-19T23:11:38.908Z,61.71
2019-02-19T23:14:08.211Z,61.38
2019-02-19T23:16:37.547Z,61.40
2019-02-19T23:19:06.935Z,61.16
2019-02-19T23:21:36.228Z,62.24
2019-02-19T23:24:05.600Z,61.82
2019-02-19T23:26:34.976Z,62.29
2019-02-19T23:29:04.431Z,62.43
2019-02-19T23:31:33.727Z,62.24
2019-02-19T23:34:04.027Z,62.55
2019-02-19T23:36:39.243Z,62.90
2019-02-19T23:39:08.825Z,62.92
2019-02-19T23:41:38.148Z,62.79
2019-02-19T23:44:07.531Z,63.11
2019-02-19T23:46:36.852Z,62.91
2019-02-19T23:49:06.208Z,62.55
2019-02-19T23:51:35.780Z,62.89
2019-02-19T23:54:05.055Z,63.14
2019-02-19T23:56:34.735Z,63.07
2019-02-19T23:59:04.027Z,63.04
